DNJODNAA

Guest
Details From DNJO - YAKUBU GOWON
To DNAA - NNAMDI AZIKIWE INTL
Flight Number -
Tags generated
Created
Modified
Stats Distance 103 nm / 190 km
Max Altitude 500 ft / 152 m
Waypoints 3
Social Downloads 0
Likes 0
Share VATSIM

Download

Looking for another format? Having issues loading an existing format? Contact us
Advertisement - Login to hide

Notes

Basic altitude profile: - Ascent Rate: 2500ft/min - Ascent Speed: 250kts - Cruise Altitude: 35000ft - Cruise Speed: 420kts - Descent Rate: 1500ft/min - Descent Speed: 250kts Options: - Use NATs: yes - Use PACOTS: yes - Use low airways: yes - Use high airways: yes

Route

DNJO JOS DNAA

ID Type Via Altitude Latitude Longitude Leg Dist Tot Dist Heading (true) Name
O DNJO APT - 0 ft / 0 m 9.63982˚ 8.86908˚ - 0 nm - YAKUBU GOWON
JOS VOR - 500 ft / 152 m 9.64219˚ 8.84300˚ 1 nm 1 nm 275° / 275° JOS VOR-DME
O DNAA APT - 0 ft / 0 m 9.00679˚ 7.26317˚ 101 nm 102 nm 248° / 248° NNAMDI AZIKIWE INTL

Altitude Profile

Advertisement - Login to hide

DNJO

Details ICAO DNJO (JOS)
Name YAKUBU GOWON
Region Nigeria
Timezone Africa/Lagos (UTC+1.0)
Stats Elevation 4,232 ft / 1,290 m (AMSL)
Location 9.639822° 8.869083°
Runways 1
Magnetic Variation 0.363° W

METAR

Not found

TAF

TAF DNJO 180330Z 1806/1912 36004KT CAVOK BECMG 1810/1812 1610KT

Decode

Departure Runways

ID Width Length Bearing (true) Bearing (mag) Surface Threshold Offset Overrun Length
10 148 ft / 45 m 9,837 ft / 2,998 m 95.25° 95.61° Asphalt 0 ft / 0 m 197 ft / 60 m
28 148 ft / 45 m 9,837 ft / 2,998 m 275.25° 275.61° Asphalt 0 ft / 0 m 197 ft / 60 m

DNAA

Details ICAO DNAA (ABV)
Name NNAMDI AZIKIWE INTL
Region Nigeria
Timezone Africa/Lagos (UTC+1.0)
Stats Elevation 1,123 ft / 342 m (AMSL)
Location 9.006790° 7.263171°
Runways 1
Magnetic Variation 0.813° W

METAR

Not found

TAF

TAF DNAA 172130Z 1800/1906 04004KT CAVOK PROB30 TEMPO 1804/1809 5000 HZ BECMG 1809/1811 23010KT

Decode

Destination Runways

ID Width Length Bearing (true) Bearing (mag) Surface Threshold Offset Overrun Length
04 197 ft / 60 m 11,883 ft / 3,622 m 34.91° 35.72° Asphalt 0 ft / 0 m 210 ft / 64 m
22 197 ft / 60 m 11,883 ft / 3,622 m 214.91° 215.72° Asphalt 0 ft / 0 m 210 ft / 64 m

Approach Navaids

Runway Type Ident Frequency Range Bearing (true) Bearing (mag) Slope Elevation
04 Localiser IAC 111.90 MHz 18 nm / 33 km 34.91° 35.73° - 1,224 ft / 373 m (AMSL)
04 Glidescope IAC 111.90 MHz 10 nm / 19 km 34.91° 35.73° 3.00° 1,211 ft / 369 m (AMSL)
04 DME IAC 111.90 MHz 18 nm / 33 km - - - 1,224 ft / 373 m (AMSL)
22 Localiser IAB 109.30 MHz 18 nm / 33 km 214.91° 215.73° - 1,175 ft / 358 m (AMSL)
22 Glidescope IAB 109.30 MHz 10 nm / 19 km 214.91° 215.73° 3.00° 1,243 ft / 379 m (AMSL)
22 DME IAB 109.30 MHz 18 nm / 33 km - - - 1,191 ft / 363 m (AMSL)